createdAt,value
2019-05-25T00:00:54.650Z,95002.11
2019-05-25T00:03:27.328Z,94994.95
2019-05-25T00:06:00.059Z,94995.07
2019-05-25T00:08:32.827Z,94996.22
2019-05-25T00:11:05.619Z,94990.27
2019-05-25T00:13:38.316Z,94985.47
2019-05-25T00:16:11.055Z,94986.69
2019-05-25T00:18:43.764Z,94978.63
2019-05-25T00:21:16.551Z,94987.34
2019-05-25T00:23:49.288Z,94998.73
2019-05-25T00:26:22.026Z,94993.06
2019-05-25T00:28:54.751Z,94999.50
2019-05-25T00:31:27.452Z,94995.30
2019-05-25T00:34:00.201Z,94993.33
2019-05-25T00:36:33.045Z,94991.09
2019-05-25T00:39:07.559Z,94998.51
2019-05-25T00:41:40.313Z,94993.98
2019-05-25T00:44:13.212Z,94994.25
2019-05-25T00:46:45.973Z,95000.86
2019-05-25T00:49:18.668Z,95002.50
2019-05-25T00:51:51.416Z,95003.09
2019-05-25T00:54:27.971Z,94998.58
2019-05-25T00:56:58.661Z,95000.41
2019-05-25T00:59:31.440Z,94992.41
2019-05-25T01:02:04.337Z,94991.11
2019-05-25T01:04:37.011Z,94994.16
2019-05-25T01:07:09.759Z,94992.56
2019-05-25T01:09:42.475Z,94989.47
2019-05-25T01:12:15.259Z,94988.71
2019-05-25T01:14:48.062Z,94997.67
2019-05-25T01:17:20.906Z,94995.27
2019-05-25T01:19:53.621Z,94994.11
2019-05-25T01:22:26.372Z,94996.41
2019-05-25T01:24:59.086Z,94994.77
2019-05-25T01:27:31.746Z,95000.80
2019-05-25T01:30:05.387Z,94999.89
2019-05-25T01:32:38.026Z,95001.07
2019-05-25T01:35:12.156Z,94995.69
2019-05-25T01:37:48.330Z,94994.09
2019-05-25T01:40:19.757Z,94992.45
2019-05-25T01:42:52.415Z,94994.86
2019-05-25T01:45:25.076Z,94994.67
2019-05-25T01:47:57.665Z,94999.52
2019-05-25T01:50:30.322Z,95001.98
2019-05-25T01:53:02.916Z,95007.56
2019-05-25T01:55:35.681Z,95006.05
2019-05-25T01:58:08.531Z,95002.80
2019-05-25T02:00:41.290Z,95000.44
2019-05-25T02:03:13.904Z,94998.22
2019-05-25T02:05:46.587Z,95008.03
2019-05-25T02:08:19.347Z,95008.24
2019-05-25T02:10:51.988Z,95005.88
2019-05-25T02:13:24.727Z,95007.75
2019-05-25T02:15:57.457Z,95004.36
2019-05-25T02:18:30.104Z,95009.79
2019-05-25T02:21:02.941Z,95009.19
2019-05-25T02:23:35.552Z,95014.59
2019-05-25T02:26:08.225Z,95016.39
2019-05-25T02:28:41.274Z,95015.19
2019-05-25T02:31:13.974Z,95015.54
2019-05-25T02:33:46.678Z,95011.30
2019-05-25T02:36:20.951Z,95012.01
2019-05-25T02:38:53.877Z,95011.13
2019-05-25T02:41:26.601Z,95008.05
2019-05-25T02:43:59.263Z,95011.56
2019-05-25T02:46:31.920Z,95001.13
2019-05-25T02:49:04.756Z,95003.03
2019-05-25T02:51:37.450Z,95005.43
2019-05-25T02:54:10.095Z,95011.04
2019-05-25T02:56:42.732Z,95021.12
2019-05-25T02:59:15.526Z,95012.89
2019-05-25T03:01:48.964Z,95014.53
2019-05-25T03:04:22.020Z,95019.38
2019-05-25T03:06:55.343Z,95017.06
2019-05-25T03:09:30.813Z,95014.55
2019-05-25T03:12:03.446Z,95021.06
2019-05-25T03:14:36.252Z,95024.67
2019-05-25T03:17:08.924Z,95017.66
2019-05-25T03:19:41.598Z,95014.44
2019-05-25T03:22:14.358Z,95018.44
2019-05-25T03:24:47.330Z,95017.55
2019-05-25T03:27:20.976Z,95022.68
2019-05-25T03:29:53.602Z,95018.06
2019-05-25T03:32:26.240Z,95019.35
2019-05-25T03:34:59.435Z,95021.95
2019-05-25T03:37:32.090Z,95024.45
2019-05-25T03:40:05.987Z,95015.82
2019-05-25T03:42:38.645Z,95028.50
2019-05-25T03:45:12.801Z,95031.52
2019-05-25T03:47:45.410Z,95030.41
2019-05-25T03:50:18.512Z,95029.61
2019-05-25T03:52:51.216Z,95029.22
2019-05-25T03:55:23.821Z,95032.53
2019-05-25T03:57:56.521Z,95027.92
2019-05-25T04:00:37.989Z,95033.69
2019-05-25T04:03:10.635Z,95035.41
2019-05-25T04:05:43.286Z,95037.61
2019-05-25T04:08:17.186Z,95036.85
2019-05-25T04:10:49.803Z,95040.75
2019-05-25T04:13:22.477Z,95047.77
2019-05-25T04:15:55.130Z,95049.48
2019-05-25T04:18:27.767Z,95040.21
2019-05-25T04:21:00.408Z,95053.59
2019-05-25T04:23:33.040Z,95054.37
2019-05-25T04:26:19.619Z,95055.67
2019-05-25T04:28:40.196Z,95053.92
2019-05-25T04:31:12.927Z,95050.04
2019-05-25T04:33:45.620Z,95052.91
2019-05-25T04:36:18.315Z,95060.01
2019-05-25T04:38:51.099Z,95064.64
2019-05-25T04:41:23.961Z,95057.31
2019-05-25T04:43:56.707Z,95058.45
2019-05-25T04:46:29.411Z,95065.75
2019-05-25T04:49:02.232Z,95072.74
2019-05-25T04:51:37.564Z,95069.40
2019-05-25T04:54:10.483Z,95066.20
2019-05-25T04:56:43.244Z,95063.19
2019-05-25T04:59:15.978Z,95063.22
2019-05-25T05:01:48.803Z,95069.21
2019-05-25T05:04:22.063Z,95067.73
2019-05-25T05:06:54.821Z,95062.53
2019-05-25T05:09:27.618Z,95058.27
2019-05-25T05:12:00.417Z,95068.79
2019-05-25T05:14:33.228Z,95068.44
2019-05-25T05:17:06.009Z,95067.80
2019-05-25T05:19:38.844Z,95071.66
2019-05-25T05:22:11.804Z,95069.75
2019-05-25T05:24:44.602Z,95075.85
2019-05-25T05:27:17.363Z,95077.87
2019-05-25T05:29:50.311Z,95075.44
2019-05-25T05:32:27.476Z,95074.75
2019-05-25T05:34:57.611Z,95081.86
2019-05-25T05:37:31.888Z,95078.13
2019-05-25T05:40:05.519Z,95080.38
2019-05-25T05:42:41.866Z,95081.64
2019-05-25T05:45:15.474Z,95078.63
2019-05-25T05:47:51.435Z,95080.90
2019-05-25T05:50:24.293Z,95074.53
2019-05-25T05:53:00.205Z,95070.83
2019-05-25T05:55:33.802Z,95077.58
2019-05-25T05:58:06.633Z,95073.53
2019-05-25T06:00:39.347Z,95075.65
2019-05-25T06:03:12.144Z,95073.59
2019-05-25T06:05:45.245Z,95076.57
2019-05-25T06:08:19.458Z,95074.75
2019-05-25T06:10:57.978Z,95068.95
2019-05-25T06:13:30.731Z,95077.65
2019-05-25T06:16:03.574Z,95079.79
2019-05-25T06:18:36.293Z,95078.45
2019-05-25T06:21:09.168Z,95080.05
2019-05-25T06:23:41.881Z,95081.42
2019-05-25T06:26:14.717Z,95083.45
2019-05-25T06:28:47.626Z,95087.63
2019-05-25T06:31:20.465Z,95093.17
2019-05-25T06:33:53.205Z,95091.84
2019-05-25T06:36:25.982Z,95093.84
2019-05-25T06:38:58.722Z,95095.63
2019-05-25T06:41:31.596Z,95091.91
2019-05-25T06:44:04.614Z,95091.30
2019-05-25T06:46:39.774Z,95099.91
2019-05-25T06:49:11.747Z,95087.23
2019-05-25T06:51:44.374Z,95087.14
2019-05-25T06:54:17.106Z,95094.51
2019-05-25T06:56:49.852Z,95094.05
2019-05-25T06:59:22.624Z,95095.66
2019-05-25T07:01:55.449Z,95094.67
2019-05-25T07:04:28.326Z,95095.58
2019-05-25T07:07:01.136Z,95095.38
2019-05-25T07:09:33.513Z,95098.66
2019-05-25T07:12:06.645Z,95099.50
2019-05-25T07:14:39.479Z,95099.13
2019-05-25T07:17:12.307Z,95099.69
2019-05-25T07:19:45.084Z,95108.48
2019-05-25T07:22:17.867Z,95110.22
2019-05-25T07:24:50.592Z,95108.89
2019-05-25T07:27:23.336Z,95115.39
2019-05-25T07:29:56.090Z,95109.91
2019-05-25T07:32:28.786Z,95107.54
2019-05-25T07:35:01.565Z,95106.76
2019-05-25T07:37:34.293Z,95103.58
2019-05-25T07:40:07.992Z,95111.00
2019-05-25T07:42:40.691Z,95112.86
2019-05-25T07:45:15.304Z,95112.70
2019-05-25T07:47:48.073Z,95118.89
2019-05-25T07:50:21.395Z,95112.84
2019-05-25T07:52:54.140Z,95114.72
2019-05-25T07:55:26.861Z,95120.52
2019-05-25T07:58:15.662Z,95124.53
2019-05-25T08:00:34.127Z,95117.40
2019-05-25T08:03:06.911Z,95116.36
2019-05-25T08:05:39.658Z,95109.70
2019-05-25T08:08:12.402Z,95111.00
2019-05-25T08:10:45.165Z,95113.69
2019-05-25T08:13:17.951Z,95114.50
2019-05-25T08:15:50.789Z,95114.30
2019-05-25T08:18:23.515Z,95116.30
2019-05-25T08:20:56.307Z,95118.32
2019-05-25T08:23:29.108Z,95123.13
2019-05-25T08:26:01.977Z,95122.32
2019-05-25T08:28:34.686Z,95108.30
2019-05-25T08:31:07.417Z,95119.94
2019-05-25T08:33:40.099Z,95112.16
2019-05-25T08:36:12.859Z,95123.62
2019-05-25T08:38:45.555Z,95121.80
2019-05-25T08:41:18.359Z,95114.49
2019-05-25T08:43:51.181Z,95109.39
2019-05-25T08:46:23.948Z,95115.45
2019-05-25T08:48:56.852Z,95111.33
2019-05-25T08:51:29.668Z,95113.33
2019-05-25T08:54:02.579Z,95106.28
2019-05-25T08:56:35.302Z,95119.49
2019-05-25T08:59:08.115Z,95107.95
2019-05-25T09:01:40.935Z,95116.11
2019-05-25T09:04:13.651Z,95120.12
2019-05-25T09:06:46.454Z,95122.00
2019-05-25T09:09:19.169Z,95114.58
2019-05-25T09:11:52.016Z,95112.52
2019-05-25T09:14:24.869Z,95115.56
2019-05-25T09:16:57.570Z,95111.27
2019-05-25T09:19:30.346Z,95113.86
2019-05-25T09:22:04.036Z,95108.16
2019-05-25T09:24:37.094Z,95113.36
2019-05-25T09:27:09.952Z,95106.89
2019-05-25T09:29:41.928Z,95109.25
2019-05-25T09:32:14.663Z,95112.97
2019-05-25T09:34:47.422Z,95106.51
2019-05-25T09:37:20.268Z,95106.28
2019-05-25T09:39:53.064Z,95101.05
2019-05-25T09:42:25.800Z,95102.32
2019-05-25T09:44:58.563Z,95097.17
2019-05-25T09:47:31.363Z,95093.52
2019-05-25T09:50:04.746Z,95090.45
2019-05-25T09:52:37.497Z,95090.95
2019-05-25T09:55:11.948Z,95082.77
2019-05-25T09:57:44.664Z,95086.60
2019-05-25T10:00:19.333Z,95080.43
2019-05-25T10:02:52.291Z,95074.12
2019-05-25T10:05:25.162Z,95079.64
2019-05-25T10:07:57.886Z,95078.40
2019-05-25T10:10:30.629Z,95072.59
2019-05-25T10:13:03.392Z,95071.19
2019-05-25T10:15:36.161Z,95067.22
2019-05-25T10:18:08.140Z,95077.84
2019-05-25T10:20:40.981Z,95085.39
2019-05-25T10:23:13.917Z,95097.75
2019-05-25T10:25:46.603Z,95101.52
2019-05-25T10:28:19.411Z,95115.61
2019-05-25T10:30:52.129Z,95110.66
2019-05-25T10:33:24.975Z,95101.03
2019-05-25T10:35:57.683Z,95097.50
2019-05-25T10:38:30.730Z,95093.58
2019-05-25T10:41:03.503Z,95094.05
2019-05-25T10:43:36.271Z,95096.39
2019-05-25T10:46:12.191Z,95092.54
2019-05-25T10:48:45.007Z,95093.98
2019-05-25T10:51:17.753Z,95092.50
2019-05-25T10:53:52.818Z,95095.89
2019-05-25T10:56:31.459Z,95097.30
2019-05-25T10:59:04.255Z,95090.08
2019-05-25T11:01:37.153Z,95089.64
2019-05-25T11:04:09.946Z,95083.58
2019-05-25T11:06:46.943Z,95087.00
2019-05-25T11:09:19.955Z,95089.50
2019-05-25T11:11:52.683Z,95087.11
2019-05-25T11:14:25.533Z,95082.48
2019-05-25T11:16:58.304Z,95077.79
2019-05-25T11:19:31.071Z,95076.81
2019-05-25T11:22:03.805Z,95069.57
2019-05-25T11:24:36.664Z,95073.04
2019-05-25T11:27:09.515Z,95070.91
2019-05-25T11:29:42.292Z,95069.16
2019-05-25T11:32:15.015Z,95069.98
2019-05-25T11:34:48.074Z,95072.45
2019-05-25T11:37:20.759Z,95075.03
2019-05-25T11:39:53.552Z,95065.73
2019-05-25T11:42:26.448Z,95057.59
2019-05-25T11:44:59.268Z,95053.45
2019-05-25T11:47:32.154Z,95058.89
2019-05-25T11:50:05.886Z,95053.95
2019-05-25T11:52:38.971Z,95048.72
2019-05-25T11:55:12.887Z,95055.94
2019-05-25T11:57:45.572Z,95051.58
2019-05-25T12:00:26.289Z,95051.56
2019-05-25T12:02:55.088Z,95047.88
2019-05-25T12:05:27.986Z,95051.75
2019-05-25T12:08:00.742Z,95052.55
2019-05-25T12:10:33.479Z,95047.45
2019-05-25T12:13:06.231Z,95057.34
2019-05-25T12:15:39.021Z,95053.96
2019-05-25T12:18:11.922Z,95061.07
2019-05-25T12:20:44.636Z,95062.45
2019-05-25T12:23:17.382Z,95066.53
2019-05-25T12:25:50.249Z,95075.67
2019-05-25T12:28:22.947Z,95081.56
2019-05-25T12:30:55.656Z,95084.15
2019-05-25T12:33:28.433Z,95098.52
2019-05-25T12:36:01.282Z,95118.89
2019-05-25T12:38:34.026Z,95126.20
2019-05-25T12:41:06.764Z,95120.22
2019-05-25T12:43:39.645Z,95125.67
2019-05-25T12:46:12.529Z,95129.44
2019-05-25T12:48:45.371Z,95127.42
2019-05-25T12:51:18.130Z,95125.88
2019-05-25T12:53:50.941Z,95127.36
2019-05-25T12:56:23.747Z,95128.86
2019-05-25T12:58:56.501Z,95134.91
2019-05-25T13:01:29.307Z,95138.73
2019-05-25T13:04:02.124Z,95139.11
2019-05-25T13:06:35.001Z,95143.25
2019-05-25T13:09:08.998Z,95143.34
2019-05-25T13:11:41.734Z,95135.31
2019-05-25T13:14:15.168Z,95121.08
2019-05-25T13:16:48.194Z,95131.08
2019-05-25T13:19:20.926Z,95128.80
2019-05-25T13:21:53.647Z,95123.08
2019-05-25T13:24:26.403Z,95121.91
2019-05-25T13:26:59.244Z,95113.72
2019-05-25T13:29:31.939Z,95111.02
2019-05-25T13:32:04.793Z,95115.98
2019-05-25T13:34:37.540Z,95114.12
2019-05-25T13:37:10.339Z,95111.81
2019-05-25T13:39:43.026Z,95102.33
2019-05-25T13:42:15.974Z,95105.99
2019-05-25T13:44:48.919Z,95100.67
2019-05-25T13:47:21.706Z,95096.26
2019-05-25T13:49:54.487Z,95092.36
2019-05-25T13:52:27.317Z,95102.27
2019-05-25T13:55:00.083Z,95097.41
2019-05-25T13:57:32.921Z,95091.90
2019-05-25T14:00:07.148Z,95089.05
2019-05-25T14:02:40.271Z,95088.34
2019-05-25T14:05:13.861Z,95082.67
2019-05-25T14:07:46.599Z,95083.05
2019-05-25T14:10:19.557Z,95071.54
2019-05-25T14:12:52.384Z,95066.70
2019-05-25T14:15:25.229Z,95061.45
2019-05-25T14:17:57.984Z,95056.91
2019-05-25T14:20:30.827Z,95057.48
2019-05-25T14:23:03.586Z,95058.22
2019-05-25T14:25:36.368Z,95051.56
2019-05-25T14:28:09.448Z,95046.77
2019-05-25T14:30:42.421Z,95044.79
2019-05-25T14:33:15.239Z,95040.93
2019-05-25T14:35:48.079Z,95036.77
2019-05-25T14:38:20.801Z,95040.55
2019-05-25T14:40:53.585Z,95034.13
2019-05-25T14:43:25.529Z,95032.28
2019-05-25T14:45:58.401Z,95029.85
2019-05-25T14:48:31.207Z,95042.79
2019-05-25T14:51:04.956Z,95038.48
2019-05-25T14:53:37.628Z,95038.56
2019-05-25T14:56:10.446Z,95039.91
2019-05-25T14:58:42.369Z,95048.89
2019-05-25T15:01:18.297Z,95051.16
2019-05-25T15:03:51.335Z,95055.27
2019-05-25T15:06:32.412Z,95056.62
2019-05-25T15:09:16.812Z,95059.81
2019-05-25T15:11:53.525Z,95061.46
2019-05-25T15:14:24.131Z,95057.38
2019-05-25T15:16:56.938Z,95053.06
2019-05-25T15:19:29.677Z,95053.05
2019-05-25T15:22:04.629Z,95061.20
2019-05-25T15:24:37.525Z,95061.44
2019-05-25T15:27:10.337Z,95067.31
2019-05-25T15:29:43.239Z,95067.56
2019-05-25T15:32:20.361Z,95071.28
2019-05-25T15:34:50.507Z,95078.30
2019-05-25T15:37:23.428Z,95089.00
2019-05-25T15:39:56.319Z,95098.30
2019-05-25T15:42:29.017Z,95106.20
2019-05-25T15:45:01.746Z,95117.94
2019-05-25T15:47:35.639Z,95123.23
2019-05-25T15:50:11.585Z,95132.20
2019-05-25T15:52:44.308Z,95153.71
2019-05-25T15:55:17.239Z,95166.89
2019-05-25T15:57:50.017Z,95179.58
2019-05-25T16:00:41.214Z,95202.17
2019-05-25T16:03:14.181Z,95209.78
2019-05-25T16:05:47.662Z,95204.27
2019-05-25T16:08:21.938Z,95217.16
2019-05-25T16:10:54.674Z,95214.70
2019-05-25T16:13:27.766Z,95232.81
2019-05-25T16:16:00.472Z,95244.75
2019-05-25T16:18:33.325Z,95263.30
2019-05-25T16:21:06.144Z,95269.88
2019-05-25T16:23:38.869Z,95264.22
2019-05-25T16:26:11.655Z,95255.91
2019-05-25T16:28:44.482Z,95255.48
2019-05-25T16:31:17.369Z,95250.75
2019-05-25T16:33:50.150Z,95250.31
2019-05-25T16:36:22.830Z,95247.70
2019-05-25T16:38:55.553Z,95235.31
2019-05-25T16:41:28.562Z,95231.83
2019-05-25T16:44:01.536Z,95225.11
2019-05-25T16:46:34.494Z,95219.95
2019-05-25T16:49:07.314Z,95220.97
2019-05-25T16:51:40.012Z,95222.87
2019-05-25T16:54:12.902Z,95221.08
2019-05-25T16:56:48.042Z,95221.08
2019-05-25T16:59:20.802Z,95225.04
2019-05-25T17:01:53.646Z,95225.62
2019-05-25T17:04:26.426Z,95223.11
2019-05-25T17:06:59.197Z,95223.89
2019-05-25T17:09:31.952Z,95227.09
2019-05-25T17:12:04.910Z,95228.42
2019-05-25T17:14:37.705Z,95217.31
2019-05-25T17:17:10.608Z,95216.64
2019-05-25T17:19:43.479Z,95213.45
2019-05-25T17:22:16.269Z,95213.38
2019-05-25T17:24:49.023Z,95214.87
2019-05-25T17:27:21.711Z,95213.63
2019-05-25T17:29:54.452Z,95201.79
2019-05-25T17:32:27.219Z,95208.05
2019-05-25T17:35:00.039Z,95202.81
2019-05-25T17:37:33.063Z,95205.30
2019-05-25T17:40:07.420Z,95210.66
2019-05-25T17:42:40.148Z,95206.73
2019-05-25T17:45:13.549Z,95206.25
2019-05-25T17:47:46.269Z,95209.47
2019-05-25T17:50:19.054Z,95198.52
2019-05-25T17:52:51.787Z,95198.94
2019-05-25T17:55:24.539Z,95201.71
2019-05-25T17:57:57.283Z,95201.71
2019-05-25T18:00:43.958Z,95210.55
2019-05-25T18:03:17.781Z,95210.42
2019-05-25T18:05:50.636Z,95207.19
2019-05-25T18:08:23.407Z,95214.09
2019-05-25T18:10:56.105Z,95229.48
2019-05-25T18:13:29.308Z,95235.91
2019-05-25T18:16:02.210Z,95234.75
2019-05-25T18:18:34.978Z,95238.37
2019-05-25T18:21:07.939Z,95240.83
2019-05-25T18:23:40.745Z,95231.34
2019-05-25T18:26:13.581Z,95240.05
2019-05-25T18:28:46.272Z,95231.34
2019-05-25T18:31:19.115Z,95235.52
2019-05-25T18:33:51.893Z,95239.97
2019-05-25T18:36:24.630Z,95240.08
2019-05-25T18:38:57.535Z,95241.64
2019-05-25T18:41:30.210Z,95240.09
2019-05-25T18:44:03.125Z,95243.50
2019-05-25T18:46:35.891Z,95243.44
2019-05-25T18:49:08.756Z,95251.11
2019-05-25T18:51:41.570Z,95251.98
2019-05-25T18:54:14.315Z,95243.86
2019-05-25T18:56:47.186Z,95250.30
2019-05-25T18:59:21.186Z,95251.98
2019-05-25T19:01:53.898Z,95245.20
2019-05-25T19:04:43.182Z,95245.48
2019-05-25T19:07:01.123Z,95249.12
2019-05-25T19:09:33.890Z,95257.65
2019-05-25T19:12:06.924Z,95254.08
2019-05-25T19:14:39.906Z,95259.23
2019-05-25T19:17:14.430Z,95262.56
2019-05-25T19:19:47.305Z,95265.78
2019-05-25T19:22:19.466Z,95265.92
2019-05-25T19:24:52.331Z,95275.67
2019-05-25T19:27:24.394Z,95277.90
2019-05-25T19:29:57.155Z,95279.95
2019-05-25T19:32:29.915Z,95282.64
2019-05-25T19:35:02.673Z,95283.14
2019-05-25T19:37:35.443Z,95289.89
2019-05-25T19:40:11.366Z,95290.67
2019-05-25T19:42:44.114Z,95291.17
2019-05-25T19:45:17.300Z,95296.90
2019-05-25T19:47:50.183Z,95305.84
2019-05-25T19:50:23.408Z,95302.73
2019-05-25T19:52:56.266Z,95306.16
2019-05-25T19:55:29.120Z,95305.51
2019-05-25T19:58:01.889Z,95304.67
2019-05-25T20:00:34.812Z,95308.62
2019-05-25T20:03:07.571Z,95311.16
2019-05-25T20:05:40.374Z,95317.00
2019-05-25T20:08:13.132Z,95311.86
2019-05-25T20:10:45.856Z,95310.89
2019-05-25T20:13:18.767Z,95313.71
2019-05-25T20:15:51.564Z,95309.94
2019-05-25T20:18:24.295Z,95309.47
2019-05-25T20:20:57.053Z,95308.77
2019-05-25T20:23:29.847Z,95313.86
2019-05-25T20:26:03.724Z,95312.55
2019-05-25T20:28:36.407Z,95317.38
2019-05-25T20:31:09.212Z,95312.28
2019-05-25T20:33:41.881Z,95320.82
2019-05-25T20:36:14.614Z,95317.19
2019-05-25T20:38:47.498Z,95324.33
2019-05-25T20:41:20.257Z,95323.84
2019-05-25T20:43:53.126Z,95324.73
2019-05-25T20:46:25.941Z,95327.57
2019-05-25T20:48:58.830Z,95328.87
2019-05-25T20:51:31.637Z,95328.17
2019-05-25T20:54:04.429Z,95327.38
2019-05-25T20:56:37.171Z,95326.93
2019-05-25T20:59:10.109Z,95329.47
2019-05-25T21:01:43.263Z,95332.70
2019-05-25T21:04:16.089Z,95326.34
2019-05-25T21:06:48.837Z,95330.78
2019-05-25T21:09:21.578Z,95320.91
2019-05-25T21:11:56.070Z,95327.66
2019-05-25T21:14:28.725Z,95328.87
2019-05-25T21:17:01.503Z,95334.40
2019-05-25T21:19:34.295Z,95336.92
2019-05-25T21:22:07.455Z,95335.70
2019-05-25T21:24:40.240Z,95336.39
2019-05-25T21:27:12.955Z,95333.08
2019-05-25T21:29:45.710Z,95334.50
2019-05-25T21:32:18.426Z,95332.67
2019-05-25T21:34:51.181Z,95337.70
2019-05-25T21:37:23.914Z,95331.59
2019-05-25T21:39:56.754Z,95332.69
2019-05-25T21:42:29.572Z,95330.38
2019-05-25T21:45:02.394Z,95331.48
2019-05-25T21:47:35.117Z,95326.05
2019-05-25T21:50:09.180Z,95332.18
2019-05-25T21:52:42.075Z,95324.34
2019-05-25T21:55:15.060Z,95315.69
2019-05-25T21:57:47.798Z,95320.72
2019-05-25T22:00:23.992Z,95323.23
2019-05-25T22:02:56.711Z,95325.03
2019-05-25T22:05:30.962Z,95319.48
2019-05-25T22:08:04.101Z,95317.57
2019-05-25T22:10:36.830Z,95317.48
2019-05-25T22:13:23.774Z,95313.69
2019-05-25T22:15:44.055Z,95314.80
2019-05-25T22:18:16.771Z,95313.57
2019-05-25T22:20:49.791Z,95319.89
2019-05-25T22:23:22.567Z,95320.22
2019-05-25T22:25:55.273Z,95320.09
2019-05-25T22:28:41.930Z,95313.56
2019-05-25T22:31:02.561Z,95313.93
2019-05-25T22:33:35.296Z,95314.66
2019-05-25T22:36:08.366Z,95317.34
2019-05-25T22:38:41.069Z,95317.48
2019-05-25T22:41:13.779Z,95317.58
2019-05-25T22:43:46.474Z,95321.44
2019-05-25T22:46:19.293Z,95321.33
2019-05-25T22:48:52.186Z,95323.88
2019-05-25T22:51:24.909Z,95313.59
2019-05-25T22:53:59.765Z,95314.31
2019-05-25T22:56:32.738Z,95311.58
2019-05-25T22:59:05.580Z,95314.33
2019-05-25T23:01:38.287Z,95319.41
2019-05-25T23:04:11.064Z,95320.67
2019-05-25T23:06:57.118Z,95320.16
2019-05-25T23:09:18.236Z,95320.80
2019-05-25T23:11:51.173Z,95325.23
2019-05-25T23:14:23.751Z,95320.67
2019-05-25T23:16:56.483Z,95319.02
2019-05-25T23:19:29.343Z,95328.08
2019-05-25T23:22:02.172Z,95324.00
2019-05-25T23:24:34.958Z,95319.21
2019-05-25T23:27:07.772Z,95324.84
2019-05-25T23:29:40.881Z,95317.25
2019-05-25T23:32:13.651Z,95313.73
2019-05-25T23:34:46.388Z,95308.81
2019-05-25T23:37:19.111Z,95307.21
2019-05-25T23:39:51.752Z,95316.62
2019-05-25T23:42:24.475Z,95318.16
2019-05-25T23:44:57.238Z,95313.41
2019-05-25T23:47:29.873Z,95316.47
2019-05-25T23:50:02.602Z,95315.69
2019-05-25T23:52:35.525Z,95323.97
2019-05-25T23:55:08.680Z,95322.93
2019-05-25T23:57:41.502Z,95314.09
